createdAt,value
2023-02-09T00:00:59.668Z,71.67
2023-02-09T00:03:26.174Z,71.93
2023-02-09T00:05:52.725Z,71.77
2023-02-09T00:08:19.575Z,72.47
2023-02-09T00:10:47.411Z,72.67
2023-02-09T00:13:14.801Z,72.76
2023-02-09T00:15:42.389Z,72.54
2023-02-09T00:18:09.979Z,72.85
2023-02-09T00:20:37.715Z,73.24
2023-02-09T00:23:05.325Z,73.03
2023-02-09T00:25:32.915Z,72.89
2023-02-09T00:27:59.603Z,73.27
2023-02-09T00:30:27.104Z,73.11
2023-02-09T00:32:53.714Z,73.17
2023-02-09T00:35:20.327Z,72.72
2023-02-09T00:37:48.928Z,72.75
2023-02-09T00:40:16.517Z,72.87
2023-02-09T00:42:43.084Z,72.68
2023-02-09T00:45:09.532Z,72.66
2023-02-09T00:47:35.994Z,72.64
2023-02-09T00:50:02.506Z,71.69
2023-02-09T00:52:29.529Z,71.73
2023-02-09T00:54:58.154Z,71.39
2023-02-09T00:57:24.676Z,71.42
2023-02-09T00:59:51.154Z,71.75
2023-02-09T01:02:17.919Z,71.33
2023-02-09T01:04:44.667Z,71.17
2023-02-09T01:07:11.145Z,71.77
2023-02-09T01:09:37.689Z,70.89
2023-02-09T01:12:04.106Z,70.92
2023-02-09T01:14:30.510Z,71.08
2023-02-09T01:16:57.005Z,70.86
2023-02-09T01:19:23.468Z,70.41
2023-02-09T01:21:49.954Z,70.32
2023-02-09T01:24:16.446Z,70.20
2023-02-09T01:26:43.867Z,69.70
2023-02-09T01:29:11.437Z,70.15
2023-02-09T01:31:39.167Z,71.08
2023-02-09T01:34:07.649Z,71.35
2023-02-09T01:36:35.245Z,71.38
2023-02-09T01:39:02.832Z,70.21
2023-02-09T01:41:31.447Z,70.42
2023-02-09T01:44:00.056Z,70.47
2023-02-09T01:46:26.763Z,71.14
2023-02-09T01:48:55.248Z,71.80
2023-02-09T01:51:22.017Z,71.73
2023-02-09T01:53:49.886Z,71.99
2023-02-09T01:56:19.247Z,71.93
2023-02-09T01:58:47.841Z,71.29
2023-02-09T02:01:16.499Z,71.87
2023-02-09T02:03:45.044Z,71.80
2023-02-09T02:06:12.659Z,72.42
2023-02-09T02:08:40.251Z,71.85
2023-02-09T02:11:07.024Z,72.23
2023-02-09T02:13:33.621Z,72.20
2023-02-09T02:16:00.259Z,72.34
2023-02-09T02:18:27.815Z,72.56
2023-02-09T02:20:56.437Z,73.07
2023-02-09T02:23:24.016Z,73.18
2023-02-09T02:25:51.599Z,72.78
2023-02-09T02:28:20.799Z,72.62
2023-02-09T02:30:50.088Z,73.11
2023-02-09T02:33:17.439Z,73.36
2023-02-09T02:35:44.013Z,72.69
2023-02-09T02:38:10.458Z,73.46
2023-02-09T02:40:38.213Z,72.54
2023-02-09T02:43:05.821Z,72.62
2023-02-09T02:45:33.472Z,72.85
2023-02-09T02:48:00.164Z,72.21
2023-02-09T02:50:27.797Z,72.80
2023-02-09T02:52:56.368Z,72.41
2023-02-09T02:55:23.960Z,72.61
2023-02-09T02:57:51.588Z,72.07
2023-02-09T03:00:20.172Z,72.00
2023-02-09T03:02:47.758Z,71.92
2023-02-09T03:05:15.425Z,72.02
2023-02-09T03:07:42.953Z,71.89
2023-02-09T03:10:09.542Z,71.41
2023-02-09T03:12:37.150Z,72.37
2023-02-09T03:15:04.751Z,72.51
2023-02-09T03:17:31.402Z,73.09
2023-02-09T03:19:58.941Z,72.62
2023-02-09T03:22:26.555Z,73.14
2023-02-09T03:24:54.169Z,73.19
2023-02-09T03:27:21.021Z,73.66
2023-02-09T03:29:48.341Z,73.71
2023-02-09T03:32:15.938Z,73.41
2023-02-09T03:34:42.588Z,74.12
2023-02-09T03:37:11.181Z,73.67
2023-02-09T03:39:37.839Z,74.01
2023-02-09T03:42:05.445Z,73.91
2023-02-09T03:44:33.100Z,74.43
2023-02-09T03:47:00.694Z,74.31
2023-02-09T03:49:28.286Z,74.24
2023-02-09T03:51:55.891Z,74.02
2023-02-09T03:54:24.856Z,74.32
2023-02-09T03:56:52.149Z,74.14
2023-02-09T03:59:19.720Z,74.38
2023-02-09T04:01:48.661Z,74.63
2023-02-09T04:04:16.037Z,74.83
2023-02-09T04:06:44.535Z,74.74
2023-02-09T04:09:12.127Z,74.51
2023-02-09T04:11:40.742Z,74.66
2023-02-09T04:14:09.957Z,74.65
2023-02-09T04:16:37.089Z,74.80
2023-02-09T04:19:04.570Z,74.90
2023-02-09T04:21:33.132Z,75.20
2023-02-09T04:23:59.878Z,74.84
2023-02-09T04:26:26.558Z,74.77
2023-02-09T04:28:54.200Z,74.38
2023-02-09T04:31:21.868Z,74.14
2023-02-09T04:33:49.333Z,72.91
2023-02-09T04:36:15.805Z,73.07
2023-02-09T04:38:42.321Z,73.36
2023-02-09T04:41:10.114Z,73.73
2023-02-09T04:43:36.723Z,73.61
2023-02-09T04:46:05.337Z,73.56
2023-02-09T04:48:32.932Z,74.06
2023-02-09T04:51:00.640Z,73.80
2023-02-09T04:53:28.269Z,74.04
2023-02-09T04:55:54.743Z,73.79
2023-02-09T04:58:21.411Z,73.64
2023-02-09T05:00:49.198Z,73.64
2023-02-09T05:03:16.623Z,74.05
2023-02-09T05:05:43.656Z,73.55
2023-02-09T05:08:10.818Z,73.76
2023-02-09T05:10:38.408Z,73.58
2023-02-09T05:13:06.035Z,73.49
2023-02-09T05:15:33.593Z,73.66
2023-02-09T05:18:00.111Z,73.89
2023-02-09T05:20:26.600Z,74.11
2023-02-09T05:22:54.362Z,73.72
2023-02-09T05:25:20.975Z,74.36
2023-02-09T05:27:47.651Z,74.27
2023-02-09T05:30:14.741Z,74.42
2023-02-09T05:32:41.381Z,74.52
2023-02-09T05:35:08.545Z,74.86
2023-02-09T05:37:35.618Z,74.75
2023-02-09T05:40:02.478Z,74.94
2023-02-09T05:42:28.971Z,74.49
2023-02-09T05:44:55.467Z,74.52
2023-02-09T05:47:21.969Z,74.68
2023-02-09T05:49:48.422Z,74.45
2023-02-09T05:52:14.876Z,75.14
2023-02-09T05:54:41.776Z,74.47
2023-02-09T05:57:08.441Z,74.61
2023-02-09T05:59:36.020Z,74.51
2023-02-09T06:02:03.689Z,74.25
2023-02-09T06:04:31.313Z,73.71
2023-02-09T06:06:58.149Z,74.18
2023-02-09T06:09:25.543Z,74.88
2023-02-09T06:11:52.405Z,75.06
2023-02-09T06:14:18.886Z,74.88
2023-02-09T06:16:46.326Z,74.85
2023-02-09T06:19:13.033Z,74.23
2023-02-09T06:21:41.551Z,73.90
2023-02-09T06:24:08.002Z,74.30
2023-02-09T06:26:34.453Z,74.60
2023-02-09T06:29:00.950Z,74.77
2023-02-09T06:31:27.554Z,74.73
2023-02-09T06:33:54.285Z,75.02
2023-02-09T06:36:21.100Z,74.61
2023-02-09T06:38:47.711Z,74.52
2023-02-09T06:41:15.306Z,74.90
2023-02-09T06:43:43.116Z,75.31
2023-02-09T06:46:10.574Z,74.71
2023-02-09T06:48:38.128Z,74.71
2023-02-09T06:51:05.728Z,74.52
2023-02-09T06:53:32.369Z,74.48
2023-02-09T06:55:58.871Z,74.99
2023-02-09T06:58:25.328Z,74.76
2023-02-09T07:00:51.810Z,75.15
2023-02-09T07:03:18.266Z,74.52
2023-02-09T07:05:46.486Z,74.96
2023-02-09T07:08:14.261Z,75.39
2023-02-09T07:10:40.742Z,75.80
2023-02-09T07:13:08.261Z,75.33
2023-02-09T07:15:35.874Z,75.22
2023-02-09T07:18:03.476Z,75.86
2023-02-09T07:20:29.939Z,75.86
2023-02-09T07:22:56.392Z,76.06
2023-02-09T07:25:24.258Z,76.07
2023-02-09T07:27:51.908Z,76.22
2023-02-09T07:30:19.471Z,75.90
2023-02-09T07:32:46.066Z,76.11
2023-02-09T07:35:14.668Z,75.81
2023-02-09T07:37:41.256Z,75.60
2023-02-09T07:40:07.919Z,76.29
2023-02-09T07:42:35.519Z,76.19
2023-02-09T07:45:03.077Z,76.61
2023-02-09T07:47:29.547Z,76.74
2023-02-09T07:49:56.016Z,76.40
2023-02-09T07:52:22.593Z,76.68
2023-02-09T07:54:49.502Z,76.71
2023-02-09T07:57:18.107Z,76.98
2023-02-09T07:59:45.712Z,76.78
2023-02-09T08:02:12.315Z,76.71
2023-02-09T08:04:39.941Z,76.54
2023-02-09T08:07:07.518Z,75.75
2023-02-09T08:09:34.018Z,76.57
2023-02-09T08:12:01.852Z,76.00
2023-02-09T08:14:32.092Z,76.33
2023-02-09T08:16:58.920Z,76.15
2023-02-09T08:19:25.546Z,76.16
2023-02-09T08:21:52.623Z,76.00
2023-02-09T08:24:19.066Z,76.01
2023-02-09T08:26:45.723Z,75.68
2023-02-09T08:29:13.005Z,76.21
2023-02-09T08:31:39.750Z,76.12
2023-02-09T08:34:07.218Z,75.90
2023-02-09T08:36:35.022Z,75.20
2023-02-09T08:39:02.401Z,75.66
2023-02-09T08:41:29.985Z,74.53
2023-02-09T08:43:57.627Z,74.66
2023-02-09T08:46:24.490Z,75.44
2023-02-09T08:48:50.983Z,75.43
2023-02-09T08:51:18.446Z,75.89
2023-02-09T08:53:46.036Z,75.90
2023-02-09T08:56:14.685Z,75.22
2023-02-09T08:58:41.651Z,74.76
2023-02-09T09:01:08.929Z,74.16
2023-02-09T09:03:35.821Z,74.27
2023-02-09T09:06:02.376Z,74.43
2023-02-09T09:08:29.710Z,74.58
2023-02-09T09:10:57.300Z,74.70
2023-02-09T09:13:24.904Z,74.91
2023-02-09T09:15:52.484Z,74.19
2023-02-09T09:18:20.242Z,74.29
2023-02-09T09:20:47.745Z,74.31
2023-02-09T09:23:15.388Z,74.57
2023-02-09T09:25:43.154Z,74.02
2023-02-09T09:28:10.662Z,74.49
2023-02-09T09:30:38.149Z,74.52
2023-02-09T09:33:05.800Z,74.04
2023-02-09T09:35:33.386Z,73.91
2023-02-09T09:38:01.116Z,73.79
2023-02-09T09:40:30.484Z,74.01
2023-02-09T09:42:59.949Z,74.28
2023-02-09T09:45:26.440Z,73.40
2023-02-09T09:48:00.617Z,72.14
2023-02-09T09:50:27.077Z,72.55
2023-02-09T09:52:56.787Z,72.87
2023-02-09T09:55:30.652Z,72.78
2023-02-09T09:57:59.232Z,72.56
2023-02-09T10:00:27.649Z,72.62
2023-02-09T10:02:55.220Z,71.49
2023-02-09T10:05:21.670Z,71.51
2023-02-09T10:07:48.068Z,71.11
2023-02-09T10:10:14.552Z,70.72
2023-02-09T10:12:41.302Z,70.90
2023-02-09T10:15:08.243Z,69.64
2023-02-09T10:17:34.874Z,69.76
2023-02-09T10:20:01.317Z,69.42
2023-02-09T10:22:27.739Z,68.97
2023-02-09T10:24:54.148Z,68.55
2023-02-09T10:27:20.555Z,68.81
2023-02-09T10:29:46.971Z,69.04
2023-02-09T10:32:13.392Z,68.67
2023-02-09T10:34:39.828Z,68.07
2023-02-09T10:37:06.352Z,68.19
2023-02-09T10:39:32.748Z,68.01
2023-02-09T10:41:59.141Z,67.48
2023-02-09T10:44:25.569Z,66.40
2023-02-09T10:46:52.065Z,66.72
2023-02-09T10:49:18.462Z,66.71
2023-02-09T10:51:44.861Z,66.57
2023-02-09T10:54:11.277Z,66.53
2023-02-09T10:56:37.704Z,66.27
2023-02-09T10:59:04.187Z,66.72
2023-02-09T11:01:30.677Z,66.68
2023-02-09T11:03:57.172Z,66.02
2023-02-09T11:06:23.717Z,66.10
2023-02-09T11:08:50.122Z,66.35
2023-02-09T11:11:16.529Z,66.09
2023-02-09T11:13:42.930Z,64.99
2023-02-09T11:16:09.382Z,65.77
2023-02-09T11:18:35.804Z,65.18
2023-02-09T11:21:02.211Z,64.79
2023-02-09T11:23:28.652Z,65.69
2023-02-09T11:25:55.052Z,64.67
2023-02-09T11:28:21.557Z,63.93
2023-02-09T11:30:48.542Z,65.17
2023-02-09T11:33:15.241Z,65.35
2023-02-09T11:35:41.732Z,64.97
2023-02-09T11:38:08.127Z,65.83
2023-02-09T11:40:34.552Z,65.84
2023-02-09T11:43:01.000Z,65.33
2023-02-09T11:45:27.667Z,65.24
2023-02-09T11:47:56.267Z,64.92
2023-02-09T11:50:22.781Z,64.57
2023-02-09T11:52:49.257Z,64.64
2023-02-09T11:55:15.652Z,64.19
2023-02-09T11:57:42.111Z,64.50
2023-02-09T12:00:10.300Z,64.73
2023-02-09T12:02:37.059Z,64.41
2023-02-09T12:05:03.540Z,63.95
2023-02-09T12:07:31.932Z,63.89
2023-02-09T12:09:59.260Z,63.26
2023-02-09T12:12:26.238Z,64.38
2023-02-09T12:14:52.694Z,63.82
2023-02-09T12:17:19.113Z,64.72
2023-02-09T12:19:46.023Z,64.33
2023-02-09T12:22:13.605Z,65.03
2023-02-09T12:24:40.196Z,64.76
2023-02-09T12:27:06.667Z,64.40
2023-02-09T12:29:33.411Z,63.69
2023-02-09T12:31:59.939Z,64.23
2023-02-09T12:34:27.621Z,64.52
2023-02-09T12:36:55.251Z,64.31
2023-02-09T12:39:24.946Z,64.38
2023-02-09T12:41:51.442Z,64.52
2023-02-09T12:44:17.894Z,64.77
2023-02-09T12:46:44.372Z,65.06
2023-02-09T12:49:11.278Z,65.60
2023-02-09T12:51:38.876Z,65.33
2023-02-09T12:54:06.478Z,65.23
2023-02-09T12:56:34.083Z,65.24
2023-02-09T12:59:01.678Z,65.47
2023-02-09T13:01:29.377Z,65.09
2023-02-09T13:03:56.918Z,64.96
2023-02-09T13:06:24.080Z,65.58
2023-02-09T13:08:52.067Z,65.72
2023-02-09T13:11:18.678Z,65.57
2023-02-09T13:13:45.254Z,65.60
2023-02-09T13:16:12.937Z,65.34
2023-02-09T13:18:41.512Z,65.46
2023-02-09T13:21:09.310Z,65.39
2023-02-09T13:23:36.923Z,65.09
2023-02-09T13:26:06.276Z,64.96
2023-02-09T13:28:35.122Z,64.97
2023-02-09T13:31:03.748Z,65.69
2023-02-09T13:33:31.400Z,65.17
2023-02-09T13:36:00.620Z,64.80
2023-02-09T13:38:30.626Z,64.69
2023-02-09T13:40:58.212Z,64.87
2023-02-09T13:43:26.846Z,65.30
2023-02-09T13:45:55.891Z,65.88
2023-02-09T13:48:23.076Z,65.64
2023-02-09T13:50:51.783Z,64.98
2023-02-09T13:53:22.421Z,64.72
2023-02-09T13:55:51.104Z,65.24
2023-02-09T13:58:18.781Z,65.95
2023-02-09T14:00:46.349Z,65.44
2023-02-09T14:03:13.227Z,65.13
2023-02-09T14:05:40.571Z,65.81
2023-02-09T14:08:08.189Z,66.07
2023-02-09T14:10:34.831Z,65.73
2023-02-09T14:13:01.412Z,65.06
2023-02-09T14:15:29.055Z,65.89
2023-02-09T14:17:56.678Z,65.09
2023-02-09T14:20:24.284Z,65.46
2023-02-09T14:22:51.857Z,66.34
2023-02-09T14:25:20.400Z,65.60
2023-02-09T14:27:47.005Z,63.80
2023-02-09T14:30:14.594Z,64.19
2023-02-09T14:32:42.221Z,63.70
2023-02-09T14:35:09.952Z,64.25
2023-02-09T14:37:37.416Z,64.82
2023-02-09T14:40:04.993Z,64.32
2023-02-09T14:42:31.898Z,63.74
2023-02-09T14:44:58.430Z,63.83
2023-02-09T14:47:25.814Z,64.28
2023-02-09T14:49:56.376Z,64.75
2023-02-09T14:52:25.022Z,64.47
2023-02-09T14:54:56.048Z,65.17
2023-02-09T14:57:25.379Z,64.44
2023-02-09T14:59:52.978Z,64.42
2023-02-09T15:02:19.909Z,64.83
2023-02-09T15:04:47.138Z,64.32
2023-02-09T15:07:15.750Z,64.65
2023-02-09T15:09:44.383Z,64.66
2023-02-09T15:12:13.988Z,64.13
2023-02-09T15:14:44.531Z,64.18
2023-02-09T15:17:12.218Z,64.22
2023-02-09T15:19:40.828Z,64.59
2023-02-09T15:22:08.230Z,65.42
2023-02-09T15:24:35.369Z,65.55
2023-02-09T15:27:02.718Z,65.21
2023-02-09T15:29:31.330Z,65.42
2023-02-09T15:31:59.903Z,65.82
2023-02-09T15:34:27.524Z,65.65
2023-02-09T15:36:55.118Z,66.16
2023-02-09T15:39:22.924Z,65.88
2023-02-09T15:41:50.329Z,65.97
2023-02-09T15:44:18.927Z,65.86
2023-02-09T15:46:47.584Z,66.55
2023-02-09T15:49:14.591Z,67.06
2023-02-09T15:51:42.756Z,67.17
2023-02-09T15:54:10.362Z,67.68
2023-02-09T15:56:37.917Z,67.23
2023-02-09T15:59:04.530Z,67.36
2023-02-09T16:01:32.196Z,67.45
2023-02-09T16:04:12.735Z,67.65
2023-02-09T16:06:41.414Z,68.20
2023-02-09T16:09:09.014Z,68.25
2023-02-09T16:11:35.780Z,67.73
2023-02-09T16:14:02.963Z,67.88
2023-02-09T16:16:31.050Z,68.22
2023-02-09T16:18:59.629Z,68.55
2023-02-09T16:21:28.408Z,68.71
2023-02-09T16:23:55.870Z,68.97
2023-02-09T16:26:24.466Z,68.92
2023-02-09T16:28:52.081Z,68.51
2023-02-09T16:31:20.758Z,68.73
2023-02-09T16:36:29.972Z,68.50
2023-02-09T16:38:59.463Z,67.88
2023-02-09T16:41:28.946Z,67.70
2023-02-09T16:43:58.676Z,67.80
2023-02-09T16:46:26.607Z,67.64
2023-02-09T16:49:02.341Z,67.86
2023-02-09T16:51:31.723Z,68.28
2023-02-09T16:54:00.424Z,68.08
2023-02-09T16:56:29.994Z,68.59
2023-02-09T17:01:37.305Z,68.97
2023-02-09T17:06:44.571Z,67.56
2023-02-09T17:09:11.210Z,66.21
2023-02-09T17:11:37.805Z,64.02
2023-02-09T17:14:05.414Z,62.68
2023-02-09T17:16:34.056Z,63.18
2023-02-09T17:19:01.650Z,62.41
2023-02-09T17:21:29.201Z,61.83
2023-02-09T17:23:55.852Z,61.76
2023-02-09T17:26:24.459Z,62.52
2023-02-09T17:28:51.122Z,62.79
2023-02-09T17:31:18.752Z,63.76
2023-02-09T17:33:46.275Z,64.66
2023-02-09T17:36:29.148Z,65.92
2023-02-09T17:38:57.577Z,65.90
2023-02-09T17:41:25.130Z,65.17
2023-02-09T17:43:52.876Z,64.57
2023-02-09T17:46:20.378Z,63.74
2023-02-09T17:48:47.965Z,62.46
2023-02-09T17:51:15.544Z,61.49
2023-02-09T17:53:44.136Z,62.10
2023-02-09T17:56:10.759Z,62.52
2023-02-09T17:58:37.314Z,62.36
2023-02-09T18:01:04.946Z,61.97
2023-02-09T18:03:34.301Z,61.73
2023-02-09T18:06:02.124Z,61.66
2023-02-09T18:08:28.726Z,61.50
2023-02-09T18:10:55.491Z,61.58
2023-02-09T18:13:22.203Z,61.76
2023-02-09T18:15:49.034Z,63.57
2023-02-09T18:18:15.555Z,64.84
2023-02-09T18:20:42.010Z,65.47
2023-02-09T18:23:08.487Z,66.63
2023-02-09T18:25:35.422Z,66.90
2023-02-09T18:28:02.308Z,66.49
2023-02-09T18:30:28.863Z,67.04
2023-02-09T18:32:55.856Z,66.77
2023-02-09T18:35:22.295Z,66.86
2023-02-09T18:37:48.834Z,66.72
2023-02-09T18:40:15.253Z,67.09
2023-02-09T18:42:41.735Z,64.58
2023-02-09T18:45:08.441Z,61.81
2023-02-09T18:47:36.034Z,60.87
2023-02-09T18:50:04.738Z,59.90
2023-02-09T18:52:31.188Z,59.15
2023-02-09T18:54:57.626Z,59.84
2023-02-09T18:57:24.062Z,59.00
2023-02-09T18:59:51.092Z,58.80
2023-02-09T19:02:18.772Z,59.27
2023-02-09T19:04:45.371Z,59.66
2023-02-09T19:07:11.782Z,58.50
2023-02-09T19:09:38.168Z,58.52
2023-02-09T19:12:04.591Z,58.29
2023-02-09T19:14:31.020Z,58.63
2023-02-09T19:16:58.356Z,59.04
2023-02-09T19:19:25.947Z,59.72
2023-02-09T19:21:52.731Z,59.15
2023-02-09T19:24:19.565Z,57.98
2023-02-09T19:26:48.162Z,58.76
2023-02-09T19:29:15.756Z,59.13
2023-02-09T19:31:42.370Z,59.32
2023-02-09T19:34:09.945Z,59.89
2023-02-09T19:36:36.536Z,60.72
2023-02-09T19:39:03.128Z,59.78
2023-02-09T19:41:29.731Z,58.85
2023-02-09T19:43:56.355Z,58.75
2023-02-09T19:46:22.831Z,58.14
2023-02-09T19:48:49.360Z,57.68
2023-02-09T19:51:15.795Z,58.13
2023-02-09T19:53:42.185Z,58.43
2023-02-09T19:56:09.504Z,58.48
2023-02-09T19:58:37.095Z,57.68
2023-02-09T20:01:03.672Z,58.50
2023-02-09T20:03:31.271Z,59.12
2023-02-09T20:05:57.751Z,58.73
2023-02-09T20:08:24.189Z,58.26
2023-02-09T20:10:50.591Z,58.99
2023-02-09T20:13:17.032Z,58.34
2023-02-09T20:15:43.582Z,59.05
2023-02-09T20:18:12.116Z,58.78
2023-02-09T20:20:40.487Z,58.43
2023-02-09T20:23:08.127Z,58.96
2023-02-09T20:25:35.726Z,58.60
2023-02-09T20:28:03.408Z,58.73
2023-02-09T20:30:30.935Z,59.30
2023-02-09T20:32:57.787Z,59.27
2023-02-09T20:35:24.276Z,59.80
2023-02-09T20:37:50.738Z,60.16
2023-02-09T20:40:17.185Z,60.44
2023-02-09T20:42:44.859Z,62.06
2023-02-09T20:45:11.726Z,62.96
2023-02-09T20:47:38.230Z,62.03
2023-02-09T20:50:05.664Z,61.58
2023-02-09T20:52:34.270Z,61.67
2023-02-09T20:55:00.865Z,61.66
2023-02-09T20:57:29.512Z,60.28
2023-02-09T20:59:57.060Z,58.52
2023-02-09T21:02:27.821Z,59.17
2023-02-09T21:04:55.238Z,59.92
2023-02-09T21:07:22.011Z,59.86
2023-02-09T21:09:48.509Z,59.89
2023-02-09T21:12:16.048Z,60.26
2023-02-09T21:14:43.277Z,59.36
2023-02-09T21:17:09.782Z,59.50
2023-02-09T21:19:36.244Z,60.03
2023-02-09T21:22:02.767Z,59.85
2023-02-09T21:24:31.084Z,60.59
2023-02-09T21:26:57.686Z,60.72
2023-02-09T21:29:24.341Z,61.34
2023-02-09T21:31:52.965Z,60.83
2023-02-09T21:34:19.622Z,61.30
2023-02-09T21:36:46.579Z,61.02
2023-02-09T21:39:13.016Z,60.87
2023-02-09T21:41:42.229Z,60.42
2023-02-09T21:44:08.821Z,60.61
2023-02-09T21:46:35.237Z,59.71
2023-02-09T21:49:01.779Z,59.69
2023-02-09T21:51:28.249Z,59.56
2023-02-09T21:53:55.601Z,59.69
2023-02-09T21:56:24.160Z,59.48
2023-02-09T21:58:51.747Z,59.94
2023-02-09T22:01:20.723Z,60.16
2023-02-09T22:03:47.751Z,60.06
2023-02-09T22:06:14.648Z,60.02
2023-02-09T22:08:42.464Z,60.02
2023-02-09T22:11:09.204Z,59.65
2023-02-09T22:13:37.858Z,59.21
2023-02-09T22:16:06.772Z,59.07
2023-02-09T22:18:34.147Z,59.91
2023-02-09T22:21:02.896Z,60.24
2023-02-09T22:23:31.921Z,60.66
2023-02-09T22:26:00.143Z,60.54
2023-02-09T22:28:29.436Z,61.15
2023-02-09T22:30:57.394Z,60.67
2023-02-09T22:33:25.997Z,60.95
2023-02-09T22:35:54.976Z,61.06
2023-02-09T22:38:22.387Z,61.20
2023-02-09T22:40:50.840Z,61.00
2023-02-09T22:43:17.570Z,61.52
2023-02-09T22:45:46.770Z,61.69
2023-02-09T22:48:15.812Z,62.25
2023-02-09T22:50:44.429Z,63.22
2023-02-09T22:53:11.124Z,63.68
2023-02-09T22:55:38.938Z,63.95
2023-02-09T22:58:06.578Z,64.40
2023-02-09T23:00:34.298Z,64.40
2023-02-09T23:03:02.921Z,64.69
2023-02-09T23:05:31.902Z,64.92
2023-02-09T23:08:00.148Z,65.78
2023-02-09T23:10:27.798Z,65.53
2023-02-09T23:12:56.436Z,65.36
2023-02-09T23:15:24.141Z,65.58
2023-02-09T23:17:51.765Z,65.93
2023-02-09T23:20:19.367Z,66.98
2023-02-09T23:22:46.936Z,67.60
2023-02-09T23:25:16.002Z,67.52
2023-02-09T23:27:44.177Z,67.89
2023-02-09T23:30:11.767Z,65.47
2023-02-09T23:32:40.941Z,65.20
2023-02-09T23:35:09.010Z,64.99
2023-02-09T23:37:38.115Z,64.83
2023-02-09T23:40:04.835Z,64.83
2023-02-09T23:42:31.265Z,64.99
2023-02-09T23:44:57.771Z,64.62
2023-02-09T23:47:24.222Z,64.32
2023-02-09T23:49:50.637Z,63.89
2023-02-09T23:52:17.085Z,65.13
2023-02-09T23:54:43.500Z,66.31
2023-02-09T23:57:09.879Z,66.50
2023-02-09T23:59:36.326Z,66.94
